createdAt,value
2018-04-28T00:01:50.615Z,18.50
2018-04-28T00:04:16.408Z,21.13
2018-04-28T00:06:42.192Z,21.00
2018-04-28T00:09:07.985Z,20.60
2018-04-28T00:11:33.720Z,20.33
2018-04-28T00:13:59.469Z,19.23
2018-04-28T00:16:27.165Z,19.07
2018-04-28T00:19:03.878Z,18.77
2018-04-28T00:21:33.426Z,22.23
2018-04-28T00:23:59.306Z,20.98
2018-04-28T00:26:25.068Z,18.03
2018-04-28T00:28:50.824Z,21.73
2018-04-28T00:34:32.164Z,21.02
2018-04-28T00:36:59.798Z,17.83
2018-04-28T00:39:25.589Z,18.20
2018-04-28T00:41:51.328Z,19.10
2018-04-28T00:44:17.354Z,21.23
2018-04-28T00:46:45.286Z,19.67
2018-04-28T00:49:11.029Z,21.23
2018-04-28T00:51:36.936Z,17.90
2018-04-28T00:54:10.072Z,19.90
2018-04-28T00:56:35.872Z,20.92
2018-04-28T00:59:02.601Z,19.27
2018-04-28T01:01:36.966Z,19.67
2018-04-28T01:04:13.873Z,19.37
2018-04-28T01:06:39.910Z,17.70
2018-04-28T01:09:05.682Z,20.55
2018-04-28T01:11:33.658Z,19.00
2018-04-28T01:16:53.239Z,16.62
2018-04-28T01:19:23.171Z,18.93
2018-04-28T01:21:48.957Z,19.62
2018-04-28T01:24:20.765Z,19.17
2018-04-28T01:26:52.420Z,20.33
2018-04-28T01:29:18.173Z,20.48
2018-04-28T01:31:43.916Z,19.53
2018-04-28T01:34:24.722Z,20.40
2018-04-28T01:36:51.446Z,19.20
2018-04-28T01:42:18.587Z,18.60
2018-04-28T01:47:51.264Z,20.92
2018-04-28T01:50:17.028Z,20.25
2018-04-28T01:52:42.780Z,19.80
2018-04-28T01:55:33.251Z,18.83
2018-04-28T01:58:00.800Z,19.25
2018-04-28T02:03:44.310Z,20.58
2018-04-28T02:06:16.297Z,20.85
2018-04-28T02:08:42.047Z,18.90
2018-04-28T02:11:07.806Z,18.77
2018-04-28T02:13:35.373Z,20.77
2018-04-28T02:16:01.109Z,20.27
2018-04-28T02:21:35.871Z,18.98
2018-04-28T02:24:08.590Z,19.67
2018-04-28T02:26:39.423Z,19.53
2018-04-28T02:29:14.041Z,20.30
2018-04-28T02:31:39.814Z,20.95
2018-04-28T02:37:24.105Z,20.17
2018-04-28T02:39:51.712Z,20.73
2018-04-28T02:42:24.268Z,20.50
2018-04-28T02:45:04.833Z,20.65
2018-04-28T02:47:30.588Z,22.23
2018-04-28T02:50:02.277Z,22.80
2018-04-28T02:55:36.139Z,23.33
2018-04-28T02:58:14.213Z,24.17
2018-04-28T03:00:45.024Z,23.70
2018-04-28T03:03:16.749Z,23.98
2018-04-28T03:05:42.512Z,25.20
2018-04-28T03:08:08.253Z,27.63
2018-04-28T03:10:34.876Z,28.90
2018-04-28T03:13:00.613Z,28.35
2018-04-28T03:15:26.396Z,27.73
2018-04-28T03:17:53.008Z,31.30
2018-04-28T03:20:18.760Z,33.13
2018-04-28T03:25:39.998Z,33.45
2018-04-28T03:28:07.655Z,37.80
2018-04-28T03:30:39.400Z,38.42
2018-04-28T03:33:09.124Z,30.27
2018-04-28T03:35:39.805Z,28.90
2018-04-28T03:38:08.601Z,37.45
2018-04-28T03:40:38.285Z,38.58
2018-04-28T03:46:03.726Z,32.13
2018-04-28T03:48:29.479Z,30.95
2018-04-28T03:50:58.135Z,33.87
2018-04-28T03:53:30.021Z,38.13
2018-04-28T03:56:05.781Z,39.33
2018-04-28T03:58:43.828Z,40.35
2018-04-28T04:01:21.924Z,39.47
2018-04-28T04:04:01.884Z,40.90
2018-04-28T04:06:41.664Z,41.90
2018-04-28T04:09:11.412Z,40.15
2018-04-28T04:11:43.312Z,40.05
2018-04-28T04:17:15.863Z,37.45
2018-04-28T04:22:54.196Z,34.08
2018-04-28T04:25:25.980Z,37.15
2018-04-28T04:30:58.760Z,35.17
2018-04-28T04:36:33.244Z,36.92
2018-04-28T04:42:30.419Z,35.07
2018-04-28T04:45:02.308Z,36.17
2018-04-28T04:47:40.404Z,35.87
2018-04-28T04:50:14.207Z,33.50
2018-04-28T04:52:43.968Z,35.73
2018-04-28T04:55:16.731Z,35.60
2018-04-28T05:01:02.129Z,32.57
2018-04-28T05:06:45.538Z,30.53
2018-04-28T05:09:11.275Z,30.43
2018-04-28T05:11:43.088Z,29.87
2018-04-28T05:14:19.899Z,29.00
2018-04-28T05:16:58.991Z,29.23
2018-04-28T05:19:30.637Z,30.00
2018-04-28T05:21:58.327Z,28.43
2018-04-28T05:24:30.309Z,29.00
2018-04-28T05:30:19.168Z,27.37
2018-04-28T05:36:05.850Z,27.33
2018-04-28T05:41:46.556Z,25.97
2018-04-28T05:47:20.431Z,23.17
2018-04-28T05:53:14.569Z,23.03
2018-04-28T05:55:46.416Z,22.60
2018-04-28T05:58:20.328Z,23.13
2018-04-28T06:00:46.106Z,21.53
2018-04-28T06:06:22.764Z,18.80
2018-04-28T06:08:59.669Z,17.57
2018-04-28T06:14:20.856Z,16.17
2018-04-28T06:16:54.791Z,14.20
2018-04-28T06:19:26.652Z,12.43
2018-04-28T06:21:52.409Z,13.53
2018-04-28T06:24:18.135Z,11.60
2018-04-28T06:26:43.869Z,12.03
2018-04-28T06:29:09.620Z,9.30
2018-04-28T06:31:35.385Z,11.93
2018-04-28T06:34:01.132Z,10.20
2018-04-28T06:36:26.884Z,8.67
2018-04-28T06:38:52.643Z,9.03
2018-04-28T06:41:18.454Z,10.13
2018-04-28T06:43:44.141Z,8.03
2018-04-28T06:46:09.860Z,7.97
2018-04-28T06:48:35.601Z,10.73
2018-04-28T06:51:01.340Z,8.43
2018-04-28T06:53:27.083Z,7.80
2018-04-28T06:55:52.858Z,9.47
2018-04-28T06:58:18.601Z,8.77
2018-04-28T07:00:44.381Z,7.03
2018-04-28T07:03:10.127Z,8.13
2018-04-28T07:05:35.864Z,10.50
2018-04-28T07:08:01.612Z,10.07
2018-04-28T07:10:27.342Z,9.33
2018-04-28T07:12:53.087Z,8.87
2018-04-28T07:15:18.828Z,7.83
2018-04-28T07:17:44.551Z,9.37
2018-04-28T07:20:10.326Z,10.20
2018-04-28T07:22:36.050Z,9.57
2018-04-28T07:25:01.805Z,7.13
2018-04-28T07:27:27.545Z,7.50
2018-04-28T07:29:53.305Z,7.37
2018-04-28T07:32:19.033Z,10.70
2018-04-28T07:34:44.782Z,7.40
2018-04-28T07:37:10.514Z,6.23
2018-04-28T07:39:36.247Z,9.53
2018-04-28T07:42:01.981Z,6.73
2018-04-28T07:44:27.735Z,7.17
2018-04-28T07:46:53.477Z,8.70
2018-04-28T07:49:19.228Z,7.63
2018-04-28T07:51:44.960Z,5.77
2018-04-28T07:54:10.815Z,7.87
2018-04-28T07:56:36.514Z,6.83
2018-04-28T07:59:02.247Z,9.00
2018-04-28T08:01:27.976Z,6.70
2018-04-28T08:03:53.723Z,7.03
2018-04-28T08:06:19.461Z,8.27
2018-04-28T08:08:45.205Z,8.47
2018-04-28T08:11:10.977Z,9.03
2018-04-28T08:13:36.718Z,7.73
2018-04-28T08:16:02.443Z,7.77
2018-04-28T08:18:28.198Z,11.43
2018-04-28T08:20:53.941Z,6.10
2018-04-28T08:23:19.676Z,6.43
2018-04-28T08:25:45.416Z,10.73
2018-04-28T08:28:11.152Z,6.57
2018-04-28T08:30:36.913Z,10.43
2018-04-28T08:33:02.639Z,8.93
2018-04-28T08:35:28.375Z,7.53
2018-04-28T08:37:54.120Z,6.53
2018-04-28T08:40:19.859Z,7.03
2018-04-28T08:42:45.589Z,7.67
2018-04-28T08:45:11.336Z,8.87
2018-04-28T08:47:37.069Z,8.60
2018-04-28T08:50:02.807Z,10.07
2018-04-28T08:52:28.544Z,9.07
2018-04-28T08:54:54.328Z,8.70
2018-04-28T08:57:20.056Z,8.07
2018-04-28T08:59:58.360Z,9.50
2018-04-28T09:02:24.092Z,8.43
2018-04-28T09:04:49.848Z,8.20
2018-04-28T09:07:28.120Z,8.90
2018-04-28T09:09:53.879Z,9.00
2018-04-28T09:12:19.601Z,7.00
2018-04-28T09:14:45.339Z,8.30
2018-04-28T09:17:11.069Z,7.63
2018-04-28T09:19:36.833Z,7.23
2018-04-28T09:22:02.572Z,7.37
2018-04-28T09:24:28.317Z,6.30
2018-04-28T09:26:54.053Z,9.37
2018-04-28T09:29:19.795Z,6.70
2018-04-28T09:31:45.541Z,8.07
2018-04-28T09:34:11.267Z,6.77
2018-04-28T09:36:36.993Z,6.60
2018-04-28T09:39:02.728Z,5.30
2018-04-28T09:41:28.484Z,9.47
2018-04-28T09:43:54.229Z,7.37
2018-04-28T09:46:19.981Z,5.87
2018-04-28T09:48:45.720Z,7.37
2018-04-28T09:51:11.479Z,6.03
2018-04-28T09:53:37.216Z,5.80
2018-04-28T09:56:02.960Z,8.27
2018-04-28T09:58:28.701Z,7.87
2018-04-28T10:00:54.510Z,5.57
2018-04-28T10:03:21.233Z,9.27
2018-04-28T10:05:46.989Z,11.07
2018-04-28T10:08:12.721Z,7.87
2018-04-28T10:10:38.456Z,6.53
2018-04-28T10:13:04.205Z,8.87
2018-04-28T10:15:30.179Z,9.00
2018-04-28T10:17:55.928Z,6.77
2018-04-28T10:20:21.777Z,9.80
2018-04-28T10:22:47.402Z,8.43
2018-04-28T10:25:13.141Z,7.70
2018-04-28T10:27:38.877Z,7.37
2018-04-28T10:30:04.647Z,8.83
2018-04-28T10:32:30.376Z,8.07
2018-04-28T10:34:56.124Z,9.47
2018-04-28T10:37:21.856Z,9.73
2018-04-28T10:39:47.608Z,9.00
2018-04-28T10:42:13.337Z,8.13
2018-04-28T10:44:39.064Z,8.00
2018-04-28T10:47:04.805Z,9.97
2018-04-28T10:49:30.532Z,8.97
2018-04-28T10:51:56.281Z,10.03
2018-04-28T10:54:22.000Z,10.57
2018-04-28T10:56:47.751Z,9.03
2018-04-28T10:59:14.210Z,12.70
2018-04-28T11:01:39.952Z,9.70
2018-04-28T11:04:05.685Z,8.77
2018-04-28T11:06:31.424Z,8.67
2018-04-28T11:08:57.160Z,11.67
2018-04-28T11:11:23.236Z,11.73
2018-04-28T11:13:49.003Z,8.43
2018-04-28T11:16:14.744Z,12.33
2018-04-28T11:18:40.472Z,10.97
2018-04-28T11:21:06.240Z,9.50
2018-04-28T11:23:31.978Z,11.00
2018-04-28T11:25:57.715Z,14.13
2018-04-28T11:28:23.458Z,12.23
2018-04-28T11:30:49.196Z,8.53
2018-04-28T11:33:14.936Z,13.03
2018-04-28T11:35:40.671Z,9.50
2018-04-28T11:38:06.462Z,11.63
2018-04-28T11:40:32.168Z,9.70
2018-04-28T11:42:57.894Z,9.57
2018-04-28T11:45:23.631Z,11.43
2018-04-28T11:47:49.365Z,12.83
2018-04-28T11:50:15.113Z,10.60
2018-04-28T11:52:40.858Z,12.97
2018-04-28T11:55:06.609Z,12.03
2018-04-28T11:57:32.343Z,10.13
2018-04-28T11:59:58.075Z,13.33
2018-04-28T12:02:23.828Z,11.37
2018-04-28T12:04:49.555Z,13.30
2018-04-28T12:07:15.302Z,12.40
2018-04-28T12:09:41.037Z,14.43
2018-04-28T12:12:06.792Z,13.60
2018-04-28T12:14:32.513Z,12.83
2018-04-28T12:16:58.255Z,14.67
2018-04-28T12:19:23.985Z,13.60
2018-04-28T12:21:49.726Z,13.93
2018-04-28T12:24:15.447Z,12.37
2018-04-28T12:26:41.180Z,13.90
2018-04-28T12:29:06.916Z,12.77
2018-04-28T12:31:32.663Z,15.20
2018-04-28T12:33:58.394Z,13.17
2018-04-28T12:36:24.140Z,13.97
2018-04-28T12:38:49.875Z,13.80
2018-04-28T12:41:15.615Z,13.20
2018-04-28T12:43:41.364Z,14.00
2018-04-28T12:46:07.099Z,10.57
2018-04-28T12:48:32.841Z,11.00
2018-04-28T12:50:58.584Z,12.87
2018-04-28T12:53:24.308Z,14.87
2018-04-28T12:55:50.123Z,12.50
2018-04-28T12:58:15.811Z,14.13
2018-04-28T13:00:41.542Z,20.23
2018-04-28T13:03:07.281Z,12.40
2018-04-28T13:05:33.011Z,11.77
2018-04-28T13:07:58.739Z,13.43
2018-04-28T13:10:24.473Z,12.30
2018-04-28T13:12:50.216Z,11.17
2018-04-28T13:15:15.947Z,12.00
2018-04-28T13:17:41.700Z,11.80
2018-04-28T13:20:07.424Z,10.57
2018-04-28T13:22:33.176Z,13.53
2018-04-28T13:24:58.904Z,14.70
2018-04-28T13:27:24.653Z,14.23
2018-04-28T13:29:50.368Z,10.27
2018-04-28T13:32:16.095Z,11.57
2018-04-28T13:34:41.828Z,10.10
2018-04-28T13:37:07.588Z,11.13
2018-04-28T13:39:33.322Z,11.90
2018-04-28T13:41:59.065Z,11.00
2018-04-28T13:44:24.788Z,10.23
2018-04-28T13:46:50.536Z,11.67
2018-04-28T13:49:16.275Z,10.33
2018-04-28T13:51:42.020Z,12.30
2018-04-28T13:54:07.752Z,9.03
2018-04-28T13:56:33.497Z,10.63
2018-04-28T13:58:59.237Z,9.33
2018-04-28T14:01:25.023Z,10.13
2018-04-28T14:03:50.741Z,11.60
2018-04-28T14:06:16.468Z,11.33
2018-04-28T14:08:42.236Z,10.17
2018-04-28T14:11:07.967Z,9.83
2018-04-28T14:13:33.704Z,12.97
2018-04-28T14:15:59.440Z,10.50
2018-04-28T14:18:25.185Z,10.90
2018-04-28T14:20:50.923Z,10.27
2018-04-28T14:23:16.680Z,9.63
2018-04-28T14:25:42.416Z,10.27
2018-04-28T14:28:08.164Z,12.30
2018-04-28T14:30:33.902Z,11.27
2018-04-28T14:32:59.653Z,10.37
2018-04-28T14:35:25.404Z,9.93
2018-04-28T14:37:51.136Z,10.90
2018-04-28T14:40:16.890Z,11.07
2018-04-28T14:42:42.615Z,10.40
2018-04-28T14:45:08.352Z,9.83
2018-04-28T14:47:34.080Z,8.17
2018-04-28T14:49:59.812Z,10.73
2018-04-28T14:52:25.556Z,9.47
2018-04-28T14:54:51.280Z,10.27
2018-04-28T14:57:17.036Z,10.40
2018-04-28T14:59:42.764Z,8.13
2018-04-28T15:02:08.517Z,10.77
2018-04-28T15:04:34.236Z,10.80
2018-04-28T15:06:59.980Z,12.70
2018-04-28T15:09:25.714Z,8.40
2018-04-28T15:11:51.448Z,11.60
2018-04-28T15:14:17.192Z,9.03
2018-04-28T15:16:42.981Z,10.63
2018-04-28T15:19:08.671Z,8.37
2018-04-28T15:21:34.401Z,8.67
2018-04-28T15:24:00.139Z,11.13
2018-04-28T15:26:25.886Z,7.93
2018-04-28T15:28:51.723Z,7.50
2018-04-28T15:31:17.372Z,7.07
2018-04-28T15:33:43.125Z,9.27
2018-04-28T15:36:08.852Z,10.60
2018-04-28T15:38:34.593Z,8.67
2018-04-28T15:41:00.314Z,12.67
2018-04-28T15:43:26.060Z,12.37
2018-04-28T15:45:51.797Z,10.63
2018-04-28T15:48:17.541Z,9.43
2018-04-28T15:50:43.264Z,10.63
2018-04-28T15:53:09.005Z,15.83
2018-04-28T15:55:34.760Z,13.93
2018-04-28T15:58:00.492Z,11.50
2018-04-28T16:00:26.233Z,11.70
2018-04-28T16:02:51.987Z,14.80
2018-04-28T16:05:17.691Z,14.00
2018-04-28T16:07:43.424Z,29.20
2018-04-28T16:10:09.156Z,19.33
2018-04-28T16:12:34.905Z,16.43
2018-04-28T16:15:02.385Z,15.67
2018-04-28T16:17:28.156Z,14.73
2018-04-28T16:19:53.898Z,14.67
2018-04-28T16:22:19.638Z,13.53
2018-04-28T16:24:45.378Z,19.23
2018-04-28T16:27:13.729Z,18.53
2018-04-28T16:29:39.533Z,16.53
2018-04-28T16:32:05.369Z,13.73
2018-04-28T16:34:31.104Z,13.17
2018-04-28T16:36:56.840Z,14.67
2018-04-28T16:39:22.592Z,14.30
2018-04-28T16:41:48.311Z,12.70
2018-04-28T16:44:14.054Z,13.00
2018-04-28T16:46:39.785Z,12.23
2018-04-28T16:49:05.516Z,13.70
2018-04-28T16:51:31.235Z,14.10
2018-04-28T16:53:56.983Z,11.90
2018-04-28T16:56:22.720Z,13.77
2018-04-28T16:58:48.440Z,13.27
2018-04-28T17:01:14.181Z,15.60
2018-04-28T17:03:39.910Z,14.53
2018-04-28T17:06:05.645Z,14.27
2018-04-28T17:08:31.401Z,13.63
2018-04-28T17:10:57.139Z,12.77
2018-04-28T17:13:22.900Z,15.67
2018-04-28T17:15:48.640Z,14.77
2018-04-28T17:18:14.379Z,13.87
2018-04-28T17:20:40.172Z,14.47
2018-04-28T17:23:05.856Z,14.27
2018-04-28T17:25:31.591Z,15.33
2018-04-28T17:27:57.315Z,13.90
2018-04-28T17:30:23.061Z,16.60
2018-04-28T17:32:48.775Z,16.47
2018-04-28T17:35:14.520Z,15.80
2018-04-28T17:37:40.244Z,16.43
2018-04-28T17:40:05.988Z,16.73
2018-04-28T17:42:31.713Z,17.33
2018-04-28T17:44:57.449Z,17.03
2018-04-28T17:47:23.219Z,15.17
2018-04-28T17:49:48.965Z,16.07
2018-04-28T17:52:14.740Z,18.80
2018-04-28T17:54:40.476Z,16.40
2018-04-28T17:57:06.212Z,16.00
2018-04-28T17:59:31.948Z,15.73
2018-04-28T18:01:57.695Z,15.23
2018-04-28T18:04:23.426Z,17.27
2018-04-28T18:06:49.160Z,19.10
2018-04-28T18:09:14.892Z,19.53
2018-04-28T18:11:40.619Z,18.67
2018-04-28T18:14:06.514Z,17.37
2018-04-28T18:16:32.257Z,17.87
2018-04-28T18:18:57.996Z,17.13
2018-04-28T18:21:23.729Z,17.00
2018-04-28T18:23:49.469Z,17.93
2018-04-28T18:26:15.249Z,16.77
2018-04-28T18:28:40.957Z,19.37
2018-04-28T18:31:06.703Z,21.87
2018-04-28T18:33:32.416Z,20.10
2018-04-28T18:35:58.156Z,17.83
2018-04-28T18:38:23.896Z,20.97
2018-04-28T18:40:49.698Z,19.00
2018-04-28T18:43:15.390Z,19.00
2018-04-28T18:45:41.172Z,17.90
2018-04-28T18:48:06.903Z,21.37
2018-04-28T18:50:32.654Z,17.63
2018-04-28T18:52:58.379Z,18.87
2018-04-28T18:55:24.128Z,19.83
2018-04-28T18:57:49.858Z,19.67
2018-04-28T19:00:15.592Z,18.93
2018-04-28T19:02:41.316Z,18.47
2018-04-28T19:05:07.081Z,19.10
2018-04-28T19:07:32.820Z,18.13
2018-04-28T19:09:58.557Z,19.73
2018-04-28T19:12:24.292Z,19.33
2018-04-28T19:14:50.036Z,18.17
2018-04-28T19:17:15.756Z,18.30
2018-04-28T19:19:41.512Z,19.13
2018-04-28T19:22:07.259Z,17.70
2018-04-28T19:24:33.150Z,18.47
2018-04-28T19:26:58.889Z,17.00
2018-04-28T19:29:24.631Z,16.87
2018-04-28T19:31:50.351Z,17.33
2018-04-28T19:34:16.412Z,16.17
2018-04-28T19:36:42.171Z,15.23
2018-04-28T19:39:07.895Z,15.20
2018-04-28T19:41:33.641Z,15.73
2018-04-28T19:43:59.386Z,14.63
2018-04-28T19:46:25.147Z,14.87
2018-04-28T19:48:50.874Z,14.73
2018-04-28T19:51:16.612Z,14.23
2018-04-28T19:53:42.344Z,15.23
2018-04-28T19:56:08.089Z,15.07
2018-04-28T19:58:33.827Z,14.00
2018-04-28T20:00:59.567Z,13.80
2018-04-28T20:03:25.295Z,15.40
2018-04-28T20:05:51.051Z,13.90
2018-04-28T20:08:16.775Z,13.70
2018-04-28T20:10:42.531Z,14.07
2018-04-28T20:13:08.252Z,13.33
2018-04-28T20:15:33.993Z,12.03
2018-04-28T20:17:59.729Z,11.57
2018-04-28T20:20:25.461Z,12.40
2018-04-28T20:23:03.552Z,12.20
2018-04-28T20:25:29.295Z,12.80
2018-04-28T20:27:55.032Z,13.57
2018-04-28T20:30:20.772Z,12.53
2018-04-28T20:32:46.508Z,13.10
2018-04-28T20:35:12.257Z,14.23
2018-04-28T20:37:37.984Z,14.03
2018-04-28T20:40:03.725Z,13.97
2018-04-28T20:42:29.481Z,14.10
2018-04-28T20:44:55.229Z,13.73
2018-04-28T20:47:20.985Z,14.53
2018-04-28T20:49:46.719Z,13.70
2018-04-28T20:52:12.457Z,15.43
2018-04-28T20:54:38.193Z,15.57
2018-04-28T20:57:03.937Z,15.53
2018-04-28T20:59:29.679Z,14.00
2018-04-28T21:01:55.436Z,15.53
2018-04-28T21:04:21.164Z,15.40
2018-04-28T21:06:46.913Z,15.20
2018-04-28T21:09:12.642Z,15.67
2018-04-28T21:11:38.384Z,15.30
2018-04-28T21:14:04.128Z,15.30
2018-04-28T21:16:29.872Z,15.97
2018-04-28T21:18:55.664Z,16.07
2018-04-28T21:21:21.366Z,14.67
2018-04-28T21:23:47.088Z,15.67
2018-04-28T21:26:12.819Z,15.67
2018-04-28T21:28:38.558Z,15.53
2018-04-28T21:31:04.297Z,16.93
2018-04-28T21:33:30.023Z,16.30
2018-04-28T21:35:55.760Z,15.97
2018-04-28T21:38:21.525Z,17.10
2018-04-28T21:40:47.365Z,17.87
2018-04-28T21:43:13.132Z,21.43
2018-04-28T21:45:38.890Z,20.83
2018-04-28T21:48:04.645Z,21.63
2018-04-28T21:50:30.397Z,21.80
2018-04-28T21:52:56.160Z,21.27
2018-04-28T21:55:21.908Z,25.50
2018-04-28T21:57:47.669Z,23.77
2018-04-28T22:00:13.405Z,23.93
2018-04-28T22:02:39.166Z,26.50
2018-04-28T22:05:04.919Z,25.87
2018-04-28T22:07:30.677Z,26.83
2018-04-28T22:09:56.430Z,25.90
2018-04-28T22:12:22.189Z,26.60
2018-04-28T22:14:47.928Z,27.13
2018-04-28T22:17:13.672Z,27.43
2018-04-28T22:19:39.433Z,28.53
2018-04-28T22:22:05.190Z,25.53
2018-04-28T22:24:30.941Z,28.20
2018-04-28T22:26:56.685Z,25.07
2018-04-28T22:29:22.427Z,24.57
2018-04-28T22:31:48.174Z,24.60
2018-04-28T22:34:13.912Z,27.03
2018-04-28T22:36:39.690Z,25.03
2018-04-28T22:39:05.404Z,24.33
2018-04-28T22:41:31.207Z,25.17
2018-04-28T22:43:56.917Z,26.37
2018-04-28T22:46:22.762Z,25.40
2018-04-28T22:48:48.545Z,27.20
2018-04-28T22:51:14.318Z,26.73
2018-04-28T22:53:40.040Z,27.47
2018-04-28T22:56:05.792Z,26.83
2018-04-28T22:58:31.533Z,24.83
2018-04-28T23:00:57.320Z,25.20
2018-04-28T23:03:23.060Z,25.20
2018-04-28T23:05:48.801Z,23.97
2018-04-28T23:08:14.544Z,25.70
2018-04-28T23:10:40.295Z,25.03
2018-04-28T23:13:06.119Z,25.50
2018-04-28T23:15:31.859Z,26.27
2018-04-28T23:17:57.613Z,26.97
2018-04-28T23:20:23.353Z,27.03
2018-04-28T23:22:49.217Z,29.00
2018-04-28T23:25:14.963Z,29.90
2018-04-28T23:27:40.702Z,27.80
2018-04-28T23:30:06.437Z,27.10
2018-04-28T23:32:32.243Z,27.80
2018-04-28T23:34:58.056Z,26.13
2018-04-28T23:37:23.801Z,26.70
2018-04-28T23:39:49.539Z,25.83
2018-04-28T23:42:15.281Z,26.93
2018-04-28T23:44:41.009Z,27.83
2018-04-28T23:47:06.756Z,27.17
2018-04-28T23:49:32.524Z,29.47
2018-04-28T23:51:58.285Z,28.70
2018-04-28T23:54:24.142Z,28.47
2018-04-28T23:56:49.884Z,26.47
2018-04-28T23:59:15.665Z,26.77
